Marina Lobra — IXVN — position and weather

sailwx.info

Track history (hours):
 
Tides and Currents Weather Stations Pressure Air Temp Water Temp Dewpoint Dewpoint Depression Visibility Wind Speed Wind Dir Waves Ship Positions

Marina Lobra

Last reported at 2015-May-05 13:21 UTC. Time now 2015-May-06 09:28 UTC.
Position N 40°50' E 014°16'.

Length 56 m; draft 2.4 m.

Type: Ship (hazmat cat C). MMSI: 247188300.

Date/timePositionNaut miles runAvg speedWind from/ knotsBaromVisibWave heightAir tempDewpointWater temp
2015-May-05 13:21N 40°50' E 014°16'1 1.2
2015-May-05 12:33N 40°50' E 014°17'0 0.0
2015-May-05 11:33N 40°50' E 014°17'0 0.0
2015-May-05 10:33N 40°50' E 014°17'0 0.2
2015-May-05 09:32N 40°50' E 014°17'0 0.0
2015-May-05 08:27N 40°50' E 014°17'0 0.0
2015-May-05 07:33N 40°50' E 014°17'1 0.1
2015-May-04 13:23N 40°51' E 014°16'0 0.2
2015-May-04 11:13N 40°50' E 014°16'1 2.1
2015-May-04 10:32N 40°50' E 014°17'0 0.0
2015-May-04 09:33N 40°50' E 014°17'0 0.0
2015-May-04 08:33N 40°50' E 014°17'0 0.0
2015-May-04 07:32N 40°50' E 014°17'  
2015-Apr-30 06:29N 40°48' E 014°17'5 5.3
2015-Apr-30 05:33N 40°43' E 014°17'5 5.3
2015-Apr-30 04:33N 40°38' E 014°14'4 4.2
2015-Apr-30 03:32N 40°34' E 014°15'0 0.4
2015-Apr-30 02:33N 40°33' E 014°14'0 0.0
2015-Apr-30 01:33N 40°33' E 014°14'0 0.0
2015-Apr-30 00:33N 40°33' E 014°14'0 0.0
2015-Apr-29 23:33N 40°33' E 014°14'0 0.0
2015-Apr-29 22:33N 40°33' E 014°14'0 0.0
2015-Apr-29 21:33N 40°33' E 014°14'0 0.0
2015-Apr-29 20:33N 40°33' E 014°14'0 0.0
2015-Apr-29 19:33N 40°33' E 014°14'0 0.4
2015-Apr-29 18:33N 40°34' E 014°15'4 4.1
2015-Apr-29 17:33N 40°38' E 014°16'4 4.4
2015-Apr-29 16:33N 40°42' E 014°17'4 4.3
2015-Apr-29 15:33N 40°46' E 014°17'4 3.8
2015-Apr-29 14:33N 40°50' E 014°17'0 0.0
2015-Apr-29 13:33N 40°50' E 014°17'0 0.0
2015-Apr-29 12:33N 40°50' E 014°17'0 0.0
2015-Apr-29 11:33N 40°50' E 014°17'0 0.0
2015-Apr-29 10:31N 40°50' E 014°17'0 0.0
2015-Apr-29 09:33N 40°50' E 014°17'1 0.0
2015-Apr-28 10:24N 40°50' E 014°16'1 0.9
2015-Apr-28 09:31N 40°50' E 014°17'0 0.0
2015-Apr-28 08:32N 40°50' E 014°17'0 0.0
2015-Apr-28 07:30N 40°50' E 014°17'1 0.1
2015-Apr-27 23:28N 40°51' E 014°16'0 0.0
2015-Apr-27 20:06N 40°51' E 014°16'0 0.0
2015-Apr-27 19:33N 40°51' E 014°16'0 0.0
2015-Apr-27 17:04N 40°51' E 014°16'0 0.0
2015-Apr-27 16:33N 40°51' E 014°16'0 0.0
2015-Apr-27 15:32N 40°51' E 014°16'0 0.0
2015-Apr-27 14:24N 40°51' E 014°16'0 0.2
2015-Apr-27 12:31N 40°50' E 014°16'0 0.2
2015-Apr-27 11:23N 40°50' E 014°16'1 0.7
2015-Apr-27 09:33N 40°50' E 014°17'0 0.1
2015-Apr-27 08:33N 40°50' E 014°17'0 0.0
2015-Apr-27 07:24N 40°50' E 014°17'0 0.0
2015-Apr-27 06:16N 40°50' E 014°17'  
Track history (hours):
 
Tides and Currents Weather Stations Pressure Air Temp Water Temp Dewpoint Dewpoint Depression Visibility Wind Speed Wind Dir Waves Ship Positions

Marina Lobra

Last reported at 2015-May-05 13:21 UTC. Time now 2015-May-06 09:28 UTC.
Position N 40°50' E 014°16'.

Length 56 m; draft 2.4 m.

Type: Ship (hazmat cat C). MMSI: 247188300.

Date/timePositionNaut miles runAvg speedWind from/ knotsBaromVisibWave heightAir tempDewpointWater temp
2015-May-05 13:21N 40°50' E 014°16'1 1.2
2015-May-05 12:33N 40°50' E 014°17'0 0.0
2015-May-05 11:33N 40°50' E 014°17'0 0.0
2015-May-05 10:33N 40°50' E 014°17'0 0.2
2015-May-05 09:32N 40°50' E 014°17'0 0.0
2015-May-05 08:27N 40°50' E 014°17'0 0.0
2015-May-05 07:33N 40°50' E 014°17'1 0.1
2015-May-04 13:23N 40°51' E 014°16'0 0.2
2015-May-04 11:13N 40°50' E 014°16'1 2.1
2015-May-04 10:32N 40°50' E 014°17'0 0.0
2015-May-04 09:33N 40°50' E 014°17'0 0.0
2015-May-04 08:33N 40°50' E 014°17'0 0.0
2015-May-04 07:32N 40°50' E 014°17'  
2015-Apr-30 06:29N 40°48' E 014°17'5 5.3
2015-Apr-30 05:33N 40°43' E 014°17'5 5.3
2015-Apr-30 04:33N 40°38' E 014°14'4 4.2
2015-Apr-30 03:32N 40°34' E 014°15'0 0.4
2015-Apr-30 02:33N 40°33' E 014°14'0 0.0
2015-Apr-30 01:33N 40°33' E 014°14'0 0.0
2015-Apr-30 00:33N 40°33' E 014°14'0 0.0
2015-Apr-29 23:33N 40°33' E 014°14'0 0.0
2015-Apr-29 22:33N 40°33' E 014°14'0 0.0
2015-Apr-29 21:33N 40°33' E 014°14'0 0.0
2015-Apr-29 20:33N 40°33' E 014°14'0 0.0
2015-Apr-29 19:33N 40°33' E 014°14'0 0.4
2015-Apr-29 18:33N 40°34' E 014°15'4 4.1
2015-Apr-29 17:33N 40°38' E 014°16'4 4.4
2015-Apr-29 16:33N 40°42' E 014°17'4 4.3
2015-Apr-29 15:33N 40°46' E 014°17'4 3.8
2015-Apr-29 14:33N 40°50' E 014°17'0 0.0
2015-Apr-29 13:33N 40°50' E 014°17'0 0.0
2015-Apr-29 12:33N 40°50' E 014°17'0 0.0
2015-Apr-29 11:33N 40°50' E 014°17'0 0.0
2015-Apr-29 10:31N 40°50' E 014°17'0 0.0
2015-Apr-29 09:33N 40°50' E 014°17'1 0.0
2015-Apr-28 10:24N 40°50' E 014°16'1 0.9
2015-Apr-28 09:31N 40°50' E 014°17'0 0.0
2015-Apr-28 08:32N 40°50' E 014°17'0 0.0
2015-Apr-28 07:30N 40°50' E 014°17'1 0.1
2015-Apr-27 23:28N 40°51' E 014°16'0 0.0
2015-Apr-27 20:06N 40°51' E 014°16'0 0.0
2015-Apr-27 19:33N 40°51' E 014°16'0 0.0
2015-Apr-27 17:04N 40°51' E 014°16'0 0.0
2015-Apr-27 16:33N 40°51' E 014°16'0 0.0
2015-Apr-27 15:32N 40°51' E 014°16'0 0.0
2015-Apr-27 14:24N 40°51' E 014°16'0 0.2
2015-Apr-27 12:31N 40°50' E 014°16'0 0.2
2015-Apr-27 11:23N 40°50' E 014°16'1 0.7
2015-Apr-27 09:33N 40°50' E 014°17'0 0.1
2015-Apr-27 08:33N 40°50' E 014°17'0 0.0
2015-Apr-27 07:24N 40°50' E 014°17'0 0.0
2015-Apr-27 06:16N 40°50' E 014°17'  

Dump ship's entire track history